ADDS METAR Data INFO
IDs: Format: Raw Decoded Include TAF

Data at: 0039 UTC 21 Jan 2018

METAR for:KBAK (Columbus Muni, IN, US)
Text:KBAK 202355Z 19007KT 10SM OVC022 05/02 A3010
Temperature: 5.0°C ( 41°F)
Dewpoint: 2.0°C ( 36°F) [RH = 81%]
Pressure (altimeter):30.10 inches Hg (1019.4 mb)
Winds:from the S (190 degrees) at 8 MPH (7 knots; 3.6 m/s)
Visibility:10 or more sm (16+ km)
Ceiling:2200 feet AGL
Clouds: overcast cloud deck at 2200 feet AGL